Stations météo

réclame
Mon MeteoGroup
Humain, Belgique (6472): Température de l'air & dewpoint: 12.02.2019 17:00:00 - 18.02.2019 17:00:00 (CET)Humain, Belgique (6472): Vitesse du vent & gusts: 12.02.2019 17:00:00 - 18.02.2019 17:00:00 (CET)Humain, Belgique (6472): Direction du vent: 12.02.2019 17:00:00 - 18.02.2019 17:00:00 (CET)Humain, Belgique (6472): reduced air pressure: 12.02.2019 17:00:00 - 18.02.2019 17:00:00 (CET)Humain, Belgique (6472): Ensoleillement: 12.02.2019 17:00:00 - 18.02.2019 17:00:00 (CET)Humain, Belgique (6472): Quantités de précipitations: 12.02.2019 17:00:00 - 18.02.2019 17:00:00 (CET)
Date & Time tt [°C] td [°C] ff [km/h] ff [knt] fx [km/h] fx [knt] dd ppp [hPa] sd [min] rr [mm]
18.02.2019 17:00:00 11,4 0,9 15 8 32 17 S 1017,7 60 0,0
18.02.2019 16:00:00 12,2 0,2 17 9 31 17 S 1017,6 60 0,0
18.02.2019 15:00:00 12,9 0,1 17 9 29 16 S 1017,7 60 0,0
18.02.2019 14:00:00 12,9 0,2 17 9 26 14 S 1018,0 60 0,0
18.02.2019 13:00:00 12,4 0,0 14 8 23 13 S 1018,9 60 0,0
18.02.2019 12:00:00 11,6 0,3 7 4 20 11 SW 1019,6 60 0,0
18.02.2019 11:00:00 10,1 -0,1 11 6 19 10 S 1020,0 60 0,0
18.02.2019 10:00:00 7,4 -0,3 8 5 17 9 SSE 1020,9 60 0,0
18.02.2019 09:00:00 5,0 -1,1 10 5 19 10 S 1021,3 55 0,0
18.02.2019 08:00:00 2,6 -3,1 7 4 16 8 ESE 1021,4 0 0,0
18.02.2019 07:00:00 4,5 -2,8 4 2 14 8 ESE 1021,4 0 0,0
18.02.2019 06:00:00 4,7 -2,7 9 5 14 8 S 1021,5 0 0,0
18.02.2019 05:00:00 4,8 -3,0 7 4 14 8 S 1021,4 0 0,0
18.02.2019 04:00:00 6,4 -1,9 9 5 18 10 S 1021,4 0 0,0
18.02.2019 03:00:00 6,2 -2,1 15 8 20 11 S 1021,7 0 0,0
18.02.2019 02:00:00 7,2 -1,5 10 5 19 10 S 1021,8 0 0,0
18.02.2019 01:00:00 6,9 -2,0 11 6 15 8 S 1022,3 0 0,0
18.02.2019 00:00:00 8,9 -2,8 9 5 18 10 S 1022,0 0 0,0
17.02.2019 23:00:00 8,5 -2,7 10 5 26 14 S 1022,1 0 0,0
17.02.2019 22:00:00 9,9 -2,1 13 7 27 15 S 1022,0 0 0,0
17.02.2019 21:00:00 9,9 -1,4 14 7 26 14 S 1022,0 0 0,0
17.02.2019 20:00:00 10,0 -1,1 12 7 23 13 S 1021,8 0 0,0
17.02.2019 19:00:00 10,8 -1,3 7 4 27 15 S 1021,5 0 0,0
17.02.2019 18:00:00 12,2 -2,5 15 8 32 17 S 1021,0 56 0,0
17.02.2019 17:00:00 13,6 -3,8 13 7 34 19 S 1021,0 40 -
17.02.2019 16:00:00 14,9 -4,4 21 11 38 20 S 1021,1 60 0,0
17.02.2019 15:00:00 15,0 -3,3 21 12 37 20 SSW 1021,2 60 0,0
17.02.2019 14:00:00 14,8 -1,7 22 12 33 18 SSW 1021,5 60 0,0
17.02.2019 13:00:00 14,5 -0,9 14 8 31 17 S 1021,9 60 0,0
17.02.2019 12:00:00 13,1 -0,6 13 7 25 13 S 1022,6 60 0,0
17.02.2019 11:00:00 10,2 1,2 9 5 17 9 SSE 1023,3 60 0,0
17.02.2019 10:00:00 6,8 1,8 7 4 12 6 S 1023,8 60 0,0
17.02.2019 09:00:00 4,1 -0,5 10 6 12 7 E 1024,2 38 0,0
17.02.2019 08:00:00 5,0 -0,2 4 2 9 5 SSE 1024,1 0 0,0
17.02.2019 07:00:00 4,2 0,0 7 4 11 6 ESE 1024,1 0 0,0
17.02.2019 06:00:00 3,0 -1,4 9 5 13 7 ESE 1024,8 0 0,0
17.02.2019 05:00:00 4,5 -0,9 10 5 14 8 ESE 1024,9 0 0,0
17.02.2019 04:00:00 5,3 0,1 9 5 11 6 E 1025,3 0 0,0
17.02.2019 03:00:00 4,8 -0,1 6 3 10 5 SE 1025,8 0 0,0
17.02.2019 02:00:00 6,7 -0,4 9 5 10 5 E 1025,9 0 0,0
17.02.2019 01:00:00 6,7 0,2 7 4 11 6 E 1026,4 0 0,0
17.02.2019 00:00:00 6,6 -0,1 4 2 9 5 SSW 1026,8 0 0,0
16.02.2019 23:00:00 6,4 -1,5 8 4 13 7 E 1026,7 0 0,0
16.02.2019 22:00:00 7,0 -1,0 6 3 14 8 S 1026,9 0 0,0
16.02.2019 21:00:00 7,7 -1,3 9 5 13 7 S 1027,0 0 0,0
16.02.2019 20:00:00 8,5 -1,6 9 5 13 7 SSW 1027,2 0 0,0
16.02.2019 19:00:00 11,0 -2,3 7 4 14 8 S 1026,9 0 0,0
16.02.2019 18:00:00 11,7 -3,0 13 7 16 9 SW 1026,6 44 0,0
16.02.2019 17:00:00 14,0 -0,9 11 6 16 8 SW 1026,5 60 0,0
16.02.2019 16:00:00 16,2 -0,1 6 3 12 6 SW 1026,4 60 0,0
16.02.2019 15:00:00 15,8 0,5 7 4 14 8 SW 1026,7 60 0,0
16.02.2019 14:00:00 14,8 0,0 10 5 16 9 WSW 1027,2 60 0,0
16.02.2019 13:00:00 13,3 -0,3 14 8 23 12 SSW 1027,8 60 0,0
16.02.2019 12:00:00 11,7 0,8 16 9 24 13 SSW 1028,3 60 0,0
16.02.2019 11:00:00 9,0 1,1 8 5 20 11 SSW 1028,4 60 0,0
16.02.2019 10:00:00 6,9 -0,1 10 5 19 10 S 1028,9 60 0,0
16.02.2019 09:00:00 4,6 -1,0 11 6 19 10 S 1028,8 52 0,0
16.02.2019 08:00:00 4,2 -2,1 7 4 21 11 WSW 1028,5 0 0,0
16.02.2019 07:00:00 4,7 -1,5 11 6 21 11 SSW 1028,0 0 0,0
16.02.2019 06:00:00 5,0 -1,8 9 5 16 9 S 1028,3 0 0,0
16.02.2019 05:00:00 5,8 -1,5 8 4 21 12 S 1028,3 0 0,0
16.02.2019 04:00:00 6,1 -2,5 5 3 11 6 S 1028,3 0 0,0
16.02.2019 03:00:00 6,1 -1,9 10 5 13 7 S 1028,7 0 0,0
16.02.2019 02:00:00 6,6 -2,0 4 2 8 5 WNW 1028,7 0 0,0
16.02.2019 01:00:00 - - - - - - - - 0 -
16.02.2019 00:00:00 7,9 -2,4 7 4 12 7 S 1028,6 0 0,0
15.02.2019 23:00:00 7,7 -2,6 8 4 16 9 S 1029,2 0 0,0
15.02.2019 22:00:00 8,1 -2,5 6 3 15 8 SSE 1029,4 0 0,0
15.02.2019 21:00:00 8,8 -2,7 8 4 13 7 S 1029,6 0 0,0
15.02.2019 20:00:00 9,3 -3,6 9 5 14 8 S 1029,7 0 0,0
15.02.2019 19:00:00 10,2 -2,4 7 4 11 6 SE 1029,5 0 0,0
15.02.2019 18:00:00 11,8 -1,3 8 4 16 9 ESE 1029,2 59 0,0
15.02.2019 17:00:00 14,3 -0,4 13 7 16 9 SSE 1029,0 60 0,0
15.02.2019 16:00:00 15,9 -1,8 8 5 21 12 S 1029,5 60 0,0
15.02.2019 15:00:00 16,7 -2,4 9 5 20 11 S 1030,0 60 0,0
15.02.2019 14:00:00 16,2 -2,1 16 8 21 12 SSE 1030,6 60 0,0
15.02.2019 13:00:00 15,4 -0,8 4 2 8 4 S 1031,5 60 0,0
15.02.2019 12:00:00 12,2 -0,7 4 2 7 4 NNW 1032,5 60 0,0
15.02.2019 11:00:00 10,7 -0,5 4 2 7 4 E 1032,7 60 0,0
15.02.2019 10:00:00 9,0 -2,4 6 3 10 5 E 1033,2 60 0,0
15.02.2019 09:00:00 7,2 -4,4 9 5 10 6 E 1033,6 51 0,0
15.02.2019 08:00:00 6,1 -5,0 0 0 4 2 N 1033,4 0 0,0
15.02.2019 07:00:00 6,2 -5,5 4 2 8 4 SSE 1033,4 0 0,0
15.02.2019 06:00:00 5,8 -5,8 6 3 12 6 E 1033,4 0 0,0
15.02.2019 05:00:00 6,2 -6,3 9 5 13 7 E 1033,5 0 0,0
15.02.2019 04:00:00 7,0 -5,5 9 5 10 6 E 1033,7 0 0,0
15.02.2019 03:00:00 7,0 -6,0 4 2 4 2 NE 1034,1 0 0,0
15.02.2019 02:00:00 7,4 -6,2 4 2 12 7 E 1034,3 0 0,0
15.02.2019 01:00:00 8,1 -5,5 7 4 12 6 SSE 1034,4 0 0,0
15.02.2019 00:00:00 7,4 -4,4 6 3 12 7 ENE 1034,5 0 0,0
14.02.2019 23:00:00 6,6 -3,4 9 5 11 6 E 1034,7 0 0,0
14.02.2019 22:00:00 7,0 -2,8 9 5 15 8 E 1034,7 0 0,0
14.02.2019 21:00:00 7,2 -2,5 10 6 14 7 E 1034,8 0 0,0
14.02.2019 20:00:00 8,6 -3,3 8 4 15 8 E 1034,8 0 0,0
14.02.2019 19:00:00 7,9 -2,0 14 8 16 9 E 1035,1 0 0,0
14.02.2019 18:00:00 9,3 -0,7 14 7 16 8 E 1034,5 59 0,0
14.02.2019 17:00:00 13,2 0,8 4 2 9 5 ESE 1034,4 60 0,0
14.02.2019 16:00:00 14,1 -0,4 8 4 15 8 ESE 1034,5 60 0,0
14.02.2019 15:00:00 14,0 -2,4 4 2 9 5 E 1034,7 60 0,0
14.02.2019 14:00:00 13,9 1,2 4 2 5 3 ESE 1035,3 60 0,0
14.02.2019 13:00:00 10,4 -0,1 4 2 8 5 N 1036,5 60 0,0
14.02.2019 12:00:00 7,9 -0,8 - - - - - 1037,0 40 -
14.02.2019 11:00:00 6,1 -1,0 4 2 6 3 ENE 1037,3 60 0,0
14.02.2019 10:00:00 2,4 -1,7 4 2 10 6 SW 1037,8 60 0,0
14.02.2019 09:00:00 0,5 -3,5 7 4 13 7 ESE 1037,9 49 0,0
14.02.2019 08:00:00 -1,1 -5,3 9 5 10 6 E 1037,7 0 0,0
14.02.2019 07:00:00 0,4 -5,9 7 4 9 5 NE 1037,0 0 0,0
14.02.2019 06:00:00 1,9 -4,3 5 3 9 5 ENE 1036,8 0 0,0
14.02.2019 05:00:00 1,4 -4,2 5 3 11 6 ESE 1037,2 0 0,0
14.02.2019 04:00:00 1,0 -5,5 7 4 8 5 E 1037,3 0 0,0
14.02.2019 03:00:00 1,0 -5,3 4 2 8 5 NNE 1037,2 0 0,0
14.02.2019 02:00:00 -0,1 -4,0 10 5 12 6 E 1037,5 0 0,0
14.02.2019 01:00:00 0,9 -3,4 11 6 13 7 E 1037,4 0 0,0
14.02.2019 00:00:00 0,3 -3,1 10 5 11 6 E 1037,6 0 0,0
13.02.2019 23:00:00 1,3 -2,6 9 5 10 5 E 1037,5 0 0,0
13.02.2019 22:00:00 1,3 -1,9 7 4 9 5 ESE 1037,8 0 0,0
13.02.2019 21:00:00 3,4 -1,0 4 2 10 5 S 1037,2 0 0,0
13.02.2019 20:00:00 4,2 -0,2 7 4 10 5 S 1037,3 0 0,0
13.02.2019 19:00:00 5,2 0,1 4 2 6 3 SSE 1037,3 0 0,0
13.02.2019 18:00:00 6,3 0,5 4 2 4 2 ESE 1037,2 46 0,0
13.02.2019 17:00:00 7,1 1,0 4 2 7 4 W 1036,9 54 0,0
13.02.2019 16:00:00 7,2 0,6 5 3 7 4 SW 1036,6 60 0,0
13.02.2019 15:00:00 6,6 0,3 5 3 10 5 W 1037,3 58 0,0
13.02.2019 14:00:00 5,8 0,2 8 4 11 6 WSW 1037,7 57 0,0
13.02.2019 13:00:00 5,1 0,1 9 5 12 6 W 1038,1 60 0,0
13.02.2019 12:00:00 4,3 0,1 9 5 14 8 WSW 1038,8 60 0,0
13.02.2019 11:00:00 2,3 0,5 4 2 8 4 S 1039,0 60 0,0
13.02.2019 10:00:00 -0,2 -1,3 5 3 9 5 ESE 1039,4 60 0,1
13.02.2019 09:00:00 -1,6 -2,3 9 5 10 6 ESE 1039,2 44 0,0
13.02.2019 08:00:00 -2,2 -2,9 6 4 11 6 SSE 1038,8 0 0,0
13.02.2019 07:00:00 -1,7 -2,3 7 4 16 9 S 1038,5 0 0,0
13.02.2019 06:00:00 -1,7 -2,2 7 4 11 6 S 1038,8 0 0,0
13.02.2019 05:00:00 -1,6 -2,1 9 5 14 8 S 1038,9 0 0,0
13.02.2019 04:00:00 -2,1 -2,6 9 5 12 7 S 1039,2 0 0,0
13.02.2019 03:00:00 -1,0 -1,5 6 4 14 7 S 1039,5 0 0,0
13.02.2019 02:00:00 -0,9 -1,5 8 4 16 9 S 1039,1 0 0,0
13.02.2019 01:00:00 -0,6 -1,2 7 4 16 9 S 1039,1 0 0,0
13.02.2019 00:00:00 -0,7 -1,5 8 4 13 7 S 1038,7 0 0,0
12.02.2019 23:00:00 -0,3 -1,3 10 5 16 9 S 1038,7 0 0,0
12.02.2019 22:00:00 -0,3 -1,6 9 5 14 7 S 1038,6 0 0,0
12.02.2019 21:00:00 0,6 -1,0 7 4 18 10 S 1038,5 0 0,0
12.02.2019 20:00:00 1,2 -0,5 10 5 20 11 S 1038,3 0 0,0
12.02.2019 19:00:00 1,6 -0,6 11 6 24 13 SSW 1038,4 0 0,0
12.02.2019 18:00:00 4,0 0,5 13 7 22 12 SW 1037,6 0 0,0
12.02.2019 17:00:00 4,9 0,3 8 4 17 9 SW 1037,0 7 0,0

tt = Température de l'air
td = dewpoint
ff = Vitesse du vent
fx = gusts
dd = Direction du vent
ppp = reduced air pressure
sd = Ensoleillement
rr = Quantités de précipitations

stations d'obs. à proximité